createdAt,value
2023-02-11T05:03:26.445Z,78.33
2023-02-11T05:07:29.013Z,77.88
2023-02-11T05:11:31.784Z,78.38
2023-02-11T05:15:34.322Z,79.73
2023-02-11T05:19:38.172Z,79.86
2023-02-11T05:23:41.687Z,79.71
2023-02-11T05:27:44.068Z,79.92
2023-02-11T05:31:46.612Z,79.97
2023-02-11T05:35:51.108Z,80.54
2023-02-11T05:39:53.850Z,80.91
2023-02-11T05:43:56.354Z,81.42
2023-02-11T05:47:59.021Z,81.84
2023-02-11T05:52:02.957Z,81.37
2023-02-11T05:56:06.272Z,81.43
2023-02-11T06:00:10.463Z,81.17
2023-02-11T06:04:15.842Z,81.49
2023-02-11T06:08:19.700Z,81.67
2023-02-11T06:12:22.247Z,82.40
2023-02-11T06:16:24.913Z,83.10
2023-02-11T06:20:27.558Z,83.11
2023-02-11T06:24:54.720Z,83.88
2023-02-11T06:28:54.454Z,83.32
2023-02-11T06:32:57.051Z,83.75
2023-02-11T06:36:59.729Z,83.34
2023-02-11T06:41:03.670Z,83.37
2023-02-11T06:45:08.994Z,83.78
2023-02-11T06:49:11.937Z,83.71
2023-02-11T06:53:14.616Z,83.95
2023-02-11T06:57:18.530Z,83.94
2023-02-11T07:01:21.392Z,83.05
2023-02-11T07:05:24.007Z,83.72
2023-02-11T07:09:26.571Z,83.55
2023-02-11T07:13:30.414Z,82.61
2023-02-11T07:17:33.166Z,82.75
2023-02-11T07:21:35.990Z,82.42
2023-02-11T07:25:38.697Z,83.32
2023-02-11T07:29:43.572Z,83.72
2023-02-11T07:33:46.670Z,83.92
2023-02-11T07:37:49.210Z,83.18
2023-02-11T07:41:51.782Z,82.72
2023-02-11T07:45:55.676Z,82.12
2023-02-11T07:49:58.267Z,82.87
2023-02-11T07:54:01.470Z,82.49
2023-02-11T07:58:04.000Z,82.44
2023-02-11T08:02:07.914Z,81.91
2023-02-11T08:06:12.603Z,82.73
2023-02-11T08:10:27.034Z,82.96
2023-02-11T08:14:29.573Z,83.47
2023-02-11T08:18:34.270Z,83.06
2023-02-11T08:22:36.765Z,83.13
2023-02-11T08:26:39.327Z,82.79
2023-02-11T08:30:41.880Z,82.46
2023-02-11T08:34:46.072Z,82.22
2023-02-11T08:38:48.677Z,82.44
2023-02-11T08:42:51.200Z,81.93
2023-02-11T08:46:54.607Z,82.27
2023-02-11T08:50:58.542Z,82.07
2023-02-11T08:55:01.055Z,81.45
2023-02-11T08:59:03.675Z,81.41
2023-02-11T09:03:06.192Z,81.59
2023-02-11T09:07:10.096Z,81.71
2023-02-11T09:11:13.324Z,81.47
2023-02-11T09:15:15.822Z,81.21
2023-02-11T09:19:19.154Z,81.96
2023-02-11T09:23:23.017Z,82.36
2023-02-11T09:27:25.557Z,82.37
2023-02-11T09:31:30.450Z,81.47
2023-02-11T09:35:34.164Z,81.05
2023-02-11T09:39:38.027Z,81.50
2023-02-11T09:43:47.050Z,81.97
2023-02-11T09:47:54.044Z,81.77
2023-02-11T09:52:02.493Z,81.50
2023-02-11T09:56:13.522Z,81.24
2023-02-11T10:00:22.676Z,80.87
2023-02-11T10:04:45.531Z,81.57
2023-02-11T10:08:58.855Z,81.85
2023-02-11T10:13:20.310Z,81.81
2023-02-11T10:17:31.666Z,81.31
2023-02-11T10:21:46.693Z,80.55
2023-02-11T10:25:54.411Z,79.99
2023-02-11T10:30:03.663Z,79.48
2023-02-11T10:34:08.793Z,80.34
2023-02-11T10:38:12.192Z,80.67
2023-02-11T10:42:15.532Z,80.95
2023-02-11T10:46:23.619Z,80.63
2023-02-11T10:50:28.197Z,79.67
2023-02-11T10:54:30.704Z,79.09
2023-02-11T10:58:37.973Z,78.32
2023-02-11T11:02:44.085Z,78.39
2023-02-11T11:06:46.738Z,79.38
2023-02-11T11:11:03.715Z,79.36
2023-02-11T11:15:22.530Z,79.30
2023-02-11T11:19:26.871Z,79.97
2023-02-11T11:23:30.819Z,79.71
2023-02-11T11:27:33.887Z,79.26
2023-02-11T11:31:46.114Z,78.75
2023-02-11T11:36:01.191Z,79.30
2023-02-11T11:40:09.578Z,80.14
2023-02-11T11:44:25.225Z,80.43
2023-02-11T11:48:32.313Z,81.30
2023-02-11T11:52:42.661Z,81.98
2023-02-11T11:56:51.999Z,81.24
2023-02-11T12:01:02.852Z,80.86
2023-02-11T12:05:12.658Z,81.14
2023-02-11T12:09:26.729Z,81.40
2023-02-11T12:13:41.710Z,81.42
2023-02-11T12:17:56.669Z,81.05
2023-02-11T12:22:10.446Z,80.62
2023-02-11T12:26:18.844Z,80.11
2023-02-11T12:30:42.735Z,79.78
2023-02-11T12:34:53.860Z,80.00
2023-02-11T12:39:11.564Z,80.04
2023-02-11T12:43:24.297Z,80.14
2023-02-11T12:47:38.816Z,80.86
2023-02-11T12:51:56.536Z,80.77
2023-02-11T12:56:05.675Z,80.42
2023-02-11T13:00:18.354Z,80.23
2023-02-11T13:04:26.554Z,80.03
2023-02-11T13:08:32.905Z,79.69
2023-02-11T13:12:55.927Z,79.92
2023-02-11T13:17:05.263Z,80.53
2023-02-11T13:21:26.816Z,80.58
2023-02-11T13:25:37.153Z,80.53
2023-02-11T13:30:04.480Z,80.81
2023-02-11T13:34:28.302Z,81.32
2023-02-11T13:38:32.608Z,80.76
2023-02-11T13:42:50.640Z,81.04
2023-02-11T13:47:02.237Z,81.40
2023-02-11T13:51:08.906Z,80.84
2023-02-11T13:55:22.652Z,80.44
2023-02-11T13:59:43.681Z,80.38
2023-02-11T14:04:25.374Z,80.76
2023-02-11T14:08:47.046Z,80.71
2023-02-11T14:13:18.611Z,80.95
2023-02-11T14:17:31.441Z,81.30
2023-02-11T14:21:37.740Z,80.77
2023-02-11T14:25:44.265Z,80.48
2023-02-11T14:30:14.948Z,81.13
2023-02-11T14:34:45.332Z,81.19
2023-02-11T14:38:59.676Z,81.74
2023-02-11T14:43:13.120Z,82.04
2023-02-11T14:47:18.737Z,82.15
2023-02-11T14:51:24.195Z,82.36
2023-02-11T14:55:32.982Z,83.06
2023-02-11T14:59:37.037Z,83.94
2023-02-11T15:03:41.778Z,84.58
2023-02-11T15:07:46.327Z,85.28
2023-02-11T15:11:50.381Z,85.57
2023-02-11T15:15:56.711Z,85.09
2023-02-11T15:20:02.752Z,84.13
2023-02-11T15:24:21.499Z,83.82
2023-02-11T15:28:27.065Z,84.42
2023-02-11T15:32:31.011Z,84.10
2023-02-11T15:36:36.285Z,84.02
2023-02-11T15:40:39.057Z,83.80
2023-02-11T15:44:41.568Z,83.95
2023-02-11T15:48:48.988Z,83.50
2023-02-11T15:52:52.854Z,82.66
2023-02-11T15:57:00.666Z,83.13
2023-02-11T16:01:03.325Z,82.90
2023-02-11T16:05:10.296Z,82.31
2023-02-11T16:09:26.089Z,82.63
2023-02-11T16:13:30.575Z,82.92
2023-02-11T16:17:33.191Z,83.02
2023-02-11T16:21:45.286Z,83.02
2023-02-11T16:25:47.820Z,83.42
2023-02-11T16:29:51.698Z,83.38
2023-02-11T16:33:54.205Z,83.53
2023-02-11T16:37:58.344Z,83.86
2023-02-11T16:42:02.025Z,84.06
2023-02-11T16:46:05.821Z,83.89
2023-02-11T16:50:10.129Z,84.14
2023-02-11T16:54:16.607Z,84.28
2023-02-11T16:58:19.644Z,83.95
2023-02-11T17:02:25.961Z,83.87
2023-02-11T17:06:28.841Z,84.77
2023-02-11T17:10:32.824Z,84.71
2023-02-11T17:14:35.332Z,84.77
2023-02-11T17:18:39.262Z,85.12
2023-02-11T17:22:42.237Z,85.38
2023-02-11T17:26:47.442Z,85.56
2023-02-11T17:30:50.039Z,85.77
2023-02-11T17:34:53.739Z,85.29
2023-02-11T17:38:56.423Z,85.77
2023-02-11T17:43:02.210Z,85.43
2023-02-11T17:47:04.931Z,84.58
2023-02-11T17:51:22.617Z,84.57
2023-02-11T17:55:25.300Z,84.87
2023-02-11T17:59:35.334Z,85.23
2023-02-11T18:03:38.026Z,84.81
2023-02-11T18:07:40.534Z,85.25
2023-02-11T18:11:43.111Z,85.35
2023-02-11T18:15:47.057Z,85.08
2023-02-11T18:19:50.362Z,84.96
2023-02-11T18:23:53.012Z,84.75
2023-02-11T18:27:55.548Z,85.14
2023-02-11T18:31:59.434Z,84.76
2023-02-11T18:36:06.215Z,84.35
2023-02-11T18:40:11.430Z,85.02
2023-02-11T18:44:14.412Z,86.04
2023-02-11T18:48:19.278Z,85.68
2023-02-11T18:52:21.795Z,86.03
2023-02-11T18:56:27.661Z,85.71
2023-02-11T19:00:31.103Z,85.77
2023-02-11T19:04:37.131Z,85.27
2023-02-11T19:08:39.684Z,86.46
2023-02-11T19:12:42.182Z,86.73
2023-02-11T19:16:46.124Z,87.08
2023-02-11T19:20:50.101Z,87.13
2023-02-11T19:24:52.655Z,87.35
2023-02-11T19:28:55.286Z,87.78
2023-02-11T19:33:00.220Z,87.81
2023-02-11T19:37:04.068Z,87.77
2023-02-11T19:41:06.587Z,88.11
2023-02-11T19:45:09.769Z,87.48
2023-02-11T19:49:15.986Z,87.51
2023-02-11T19:53:20.031Z,87.78
2023-02-11T19:57:22.599Z,88.12
2023-02-11T20:01:26.607Z,87.82
2023-02-11T20:05:31.338Z,87.36
2023-02-11T20:09:35.194Z,87.27
2023-02-11T20:13:37.839Z,87.14
2023-02-11T20:17:40.328Z,87.66
2023-02-11T20:21:44.991Z,87.70
2023-02-11T20:25:50.757Z,88.43
2023-02-11T20:29:53.681Z,88.63
2023-02-11T20:33:57.393Z,88.48
2023-02-11T20:38:00.463Z,88.30
2023-02-11T20:42:04.685Z,89.03
2023-02-11T20:46:08.327Z,89.53
2023-02-11T20:50:11.845Z,89.78
2023-02-11T20:54:14.840Z,89.75
2023-02-11T20:58:18.690Z,89.99
2023-02-11T21:02:23.597Z,90.22
2023-02-11T21:06:32.575Z,90.14
2023-02-11T21:10:35.076Z,89.96
2023-02-11T21:14:38.938Z,89.75
2023-02-11T21:18:41.527Z,90.11
2023-02-11T21:22:44.009Z,89.61
2023-02-11T21:26:46.537Z,89.43
2023-02-11T21:30:51.445Z,89.23
2023-02-11T21:34:54.918Z,88.83
2023-02-11T21:38:57.820Z,88.33
2023-02-11T21:43:00.355Z,88.01
2023-02-11T21:47:04.343Z,88.13
2023-02-11T21:51:08.747Z,88.04
2023-02-11T21:55:11.370Z,87.82
2023-02-11T21:59:14.721Z,88.00
